Terminal Aerodrome Forecast
Issued by NWS

Home | Current Version | Previous Version | Graphics & Text | Print | Product List | Glossary On
Versions: 1 2 3 4 5 6 7 8 9 10 11 12 13 14 15 16 17 18 19 20 21 22 23 24 25 26 27 28 29 30 31 32 33
000
FTUS43 KLOT 300902 AAA
TAFMDW
TAF AMD
KMDW 300902Z 3009/0106 29005KT 5SM BR SCT120
     FM301100 29003KT 3SM BR FEW250
     FM301400 30009KT P6SM SCT040 BKN080
     FM301800 33010KT P6SM VCSH BKN045
     FM302200 04010KT P6SM SCT050=

USA.gov is the U.S. government's official web portal to all federal, state and local government web resources and services.